Time;durP1;ratioP1;P1;durP2;ratioP2;P2;SDS_P1;SDS_P2;PMS_P1;PMS_P2;Temp;Humidity;BMP_temperature;BMP_pressure;BME280_temperature;BME280_humidity;BME280_pressure;Samples;Min_cycle;Max_cycle;Signal;HPM_P1;HPM_P2
2023/06/01 00:01:33;;;;;;;10.60;2.80;;;12.60;99.90;;;;;;5112963;28;20138;-76
2023/06/01 00:03:59;;;;;;;5.68;2.70;;;12.60;99.90;;;;;;5113655;28;20047;-76
2023/06/01 00:06:28;;;;;;;6.10;2.17;;;12.60;99.90;;;;;;5116342;28;20048;-76
2023/06/01 00:08:57;;;;;;;9.68;2.78;;;12.60;99.90;;;;;;5116573;28;20051;-75
2023/06/01 00:11:23;;;;;;;7.25;2.92;;;12.60;99.90;;;;;;5117415;27;20075;-76
2023/06/01 00:13:50;;;;;;;6.85;2.20;;;12.60;99.90;;;;;;5117358;28;20130;-76
2023/06/01 00:16:16;;;;;;;7.63;2.53;;;12.60;99.90;;;;;;5099301;28;20440;-75
2023/06/01 00:18:43;;;;;;;7.05;2.53;;;12.60;99.90;;;;;;5116082;28;20048;-76
2023/06/01 00:21:09;;;;;;;5.47;2.80;;;12.60;99.90;;;;;;5116401;28;20131;-77
2023/06/01 00:23:35;;;;;;;7.68;2.65;;;12.60;99.90;;;;;;5116047;28;20044;-76
2023/06/01 00:26:02;;;;;;;8.55;2.90;;;12.50;99.90;;;;;;5116760;28;20051;-76
2023/06/01 00:28:27;;;;;;;6.85;2.50;;;12.50;99.90;;;;;;5117121;27;20051;-76
2023/06/01 00:30:53;;;;;;;8.25;2.75;;;12.50;99.90;;;;;;5131118;27;20062;-76
2023/06/01 00:33:20;;;;;;;6.65;2.72;;;12.50;99.90;;;;;;5138056;27;20057;-76
2023/06/01 00:35:46;;;;;;;8.48;2.75;;;12.50;99.90;;;;;;5103151;27;20047;-75
2023/06/01 00:38:12;;;;;;;7.50;2.85;;;12.50;99.90;;;;;;5103106;27;20047;-75
2023/06/01 00:40:38;;;;;;;7.47;2.80;;;12.50;99.90;;;;;;5119951;27;20047;-76
2023/06/01 00:43:04;;;;;;;7.78;2.67;;;12.50;99.90;;;;;;5137933;27;20406;-76
2023/06/01 00:45:30;;;;;;;8.15;2.33;;;12.50;99.90;;;;;;5119104;27;20501;-76
2023/06/01 00:47:56;;;;;;;6.53;2.63;;;12.50;99.90;;;;;;5119607;27;20042;-76
2023/06/01 00:50:22;;;;;;;8.00;2.30;;;12.50;99.90;;;;;;5137165;27;20035;-76
2023/06/01 00:52:50;;;;;;;5.88;2.55;;;12.50;99.90;;;;;;5118966;27;20524;-75
2023/06/01 00:55:16;;;;;;;11.13;2.90;;;13.40;99.90;;;;;;5137090;27;20078;-75
2023/06/01 00:57:46;;;;;;;7.85;2.22;;;12.50;99.90;;;;;;5137041;27;20092;-75
2023/06/01 01:00:12;;;;;;;6.57;2.40;;;12.50;99.90;;;;;;5136986;27;20131;-75
2023/06/01 01:02:40;;;;;;;9.68;2.70;;;12.40;99.90;;;;;;5137011;27;20039;-75
2023/06/01 01:05:10;;;;;;;6.57;2.40;;;12.40;99.90;;;;;;5118751;27;20399;-75
2023/06/01 01:07:52;;;;;;;12.25;2.45;;;12.40;99.90;;;;;;5136781;27;20040;-75
2023/06/01 01:10:39;;;;;;;6.03;2.33;;;12.40;99.90;;;;;;5118696;27;20058;-75
2023/06/01 01:13:17;;;;;;;4.68;2.10;;;12.40;99.90;;;;;;5118306;27;20491;-76
2023/06/01 01:16:00;;;;;;;8.18;2.38;;;12.40;99.90;;;;;;5136733;27;20046;-76
2023/06/01 01:18:40;;;;;;;5.65;2.20;;;12.40;99.90;;;;;;5137522;27;20084;-75
2023/06/01 01:21:22;;;;;;;6.38;1.88;;;12.40;99.90;;;;;;5118716;27;20122;-76
2023/06/01 01:24:22;;;;;;;5.03;2.05;;;12.40;99.90;;;;;;5136560;27;20048;-75
2023/06/01 01:27:25;;;;;;;5.43;2.28;;;12.40;99.90;;;;;;5136937;27;20046;-76
2023/06/01 01:29:54;;;;;;;5.70;2.58;;;12.40;99.90;;;;;;5136775;27;20051;-75
2023/06/01 01:32:23;;;;;;;6.30;2.22;;;12.40;99.90;;;;;;5136345;27;20123;-76
2023/06/01 01:34:51;;;;;;;5.93;2.38;;;12.40;99.90;;;;;;5136281;27;20529;-76
2023/06/01 01:37:16;;;;;;;4.50;2.22;;;12.40;99.90;;;;;;5101159;27;20096;-76
2023/06/01 01:39:42;;;;;;;5.75;2.78;;;12.40;99.90;;;;;;5136182;27;20046;-76
2023/06/01 01:42:08;;;;;;;6.72;2.60;;;12.40;99.90;;;;;;5136630;27;20051;-75
2023/06/01 01:44:34;;;;;;;8.63;2.70;;;12.40;99.90;;;;;;5136120;27;20039;-75
2023/06/01 01:47:14;;;;;;;3.97;1.80;;;12.40;99.90;;;;;;5118529;27;20122;-76
2023/06/01 01:49:56;;;;;;;6.20;2.15;;;12.40;99.90;;;;;;5135678;27;20057;-76
2023/06/01 01:52:42;;;;;;;5.32;2.15;;;12.40;99.90;;;;;;5117842;27;20061;-76
2023/06/01 01:55:10;;;;;;;3.83;1.83;;;12.40;99.90;;;;;;5117500;27;20043;-75
2023/06/01 01:57:37;;;;;;;4.72;1.92;;;12.30;99.90;;;;;;5135889;27;20047;-75
2023/06/01 02:00:05;;;;;;;6.60;1.90;;;12.30;99.90;;;;;;5136610;27;20050;-76
2023/06/01 02:02:31;;;;;;;5.03;1.80;;;12.30;99.90;;;;;;5135713;27;20054;-76
2023/06/01 02:04:57;;;;;;;9.95;1.60;;;12.30;99.90;;;;;;5100649;27;20043;-76
2023/06/01 02:07:23;;;;;;;5.05;1.60;;;12.20;99.90;;;;;;5135559;27;20039;-75
2023/06/01 02:09:48;;;;;;;3.85;1.48;;;12.20;99.90;;;;;;5100323;27;20047;-76
2023/06/01 02:12:14;;;;;;;5.60;1.25;;;12.30;99.90;;;;;;5117424;27;20051;-75
2023/06/01 02:14:40;;;;;;;4.03;1.60;;;12.20;99.90;;;;;;5117031;27;20043;-76
2023/06/01 02:17:07;;;;;;;6.35;1.63;;;12.20;99.90;;;;;;5136207;27;20036;-75
2023/06/01 02:19:33;;;;;;;3.13;1.60;;;12.20;99.90;;;;;;5117325;27;20054;-75
2023/06/01 02:21:59;;;;;;;4.63;1.17;;;12.10;99.90;;;;;;5135390;27;20142;-75
2023/06/01 02:24:24;;;;;;;4.95;1.30;;;12.10;99.90;;;;;;5117271;27;20526;-75
2023/06/01 02:26:53;;;;;;;5.32;1.45;;;12.10;99.90;;;;;;5117764;27;20114;-76
2023/06/01 02:29:21;;;;;;;5.05;1.45;;;12.10;99.90;;;;;;5134527;27;20051;-76
2023/06/01 02:31:48;;;;;;;5.25;1.73;;;12.10;99.90;;;;;;5136058;27;20436;-76
2023/06/01 02:34:14;;;;;;;4.13;1.38;;;12.10;99.90;;;;;;5135744;27;20055;-75
2023/06/01 02:36:40;;;;;;;3.83;1.60;;;12.10;99.90;;;;;;5116835;27;20126;-75
2023/06/01 02:39:06;;;;;;;4.50;1.35;;;12.10;99.90;;;;;;5099907;27;20050;-75
2023/06/01 02:41:31;;;;;;;3.95;1.33;;;12.10;99.90;;;;;;5136027;27;20111;-76
2023/06/01 02:43:57;;;;;;;2.20;1.25;;;12.10;99.90;;;;;;5135148;27;20043;-74
2023/06/01 02:46:23;;;;;;;8.48;1.75;;;12.00;99.90;;;;;;5117008;27;20039;-75
2023/06/01 02:48:51;;;;;;;3.50;1.60;;;12.00;99.90;;;;;;5135363;27;20542;-76
2023/06/01 02:51:18;;;;;;;3.40;1.40;;;12.10;99.90;;;;;;5083598;28;20047;-76
2023/06/01 02:53:46;;;;;;;4.38;1.23;;;12.10;99.90;;;;;;5117682;27;20047;-75
2023/06/01 02:56:12;;;;;;;3.83;1.50;;;12.10;99.90;;;;;;5135632;27;20058;-76
2023/06/01 02:58:38;;;;;;;4.63;1.35;;;12.10;99.90;;;;;;5099888;27;20051;-75
2023/06/01 03:01:04;;;;;;;4.53;1.58;;;12.10;99.90;;;;;;5100425;27;20054;-76
2023/06/01 03:03:30;;;;;;;4.03;1.38;;;12.10;99.90;;;;;;5134608;27;20570;-76
2023/06/01 03:05:57;;;;;;;3.90;1.30;;;12.10;99.90;;;;;;5099619;27;20082;-76
2023/06/01 03:08:26;;;;;;;5.00;1.30;;;12.10;99.90;;;;;;5099486;27;20055;-76
2023/06/01 03:10:52;;;;;;;5.07;1.30;;;12.10;99.90;;;;;;5135354;27;20050;-77
2023/06/01 03:13:18;;;;;;;3.78;1.20;;;12.10;99.90;;;;;;5099581;27;20043;-77
2023/06/01 03:15:44;;;;;;;6.38;1.35;;;12.10;99.90;;;;;;5135325;27;20047;-76
2023/06/01 03:18:10;;;;;;;6.55;1.60;;;12.10;99.90;;;;;;5135248;27;20039;-76
2023/06/01 03:20:36;;;;;;;5.28;1.40;;;12.10;99.90;;;;;;5135526;28;20039;-76
2023/06/01 03:23:02;;;;;;;5.75;1.83;;;12.10;99.90;;;;;;5117274;28;20471;-76
2023/06/01 03:25:28;;;;;;;5.80;1.75;;;12.10;99.90;;;;;;5134673;28;20128;-76
2023/06/01 03:27:53;;;;;;;5.93;1.52;;;12.10;99.90;;;;;;5116232;28;20136;-76
2023/06/01 03:30:19;;;;;;;4.82;1.58;;;12.10;99.90;;;;;;5113599;28;20448;-76
2023/06/01 03:32:46;;;;;;;1999.90;999.90;;;12.10;99.90;;;;;;5113999;28;20050;-75
2023/06/01 03:35:12;;;;;;;243.40;52.55;;;12.10;99.90;;;;;;5114039;28;20047;-75
2023/06/01 03:37:40;;;;;;;88.80;18.45;;;12.10;99.90;;;;;;5114483;28;20089;-75
2023/06/01 03:40:10;;;;;;;97.97;87.82;;;12.00;99.90;;;;;;5114907;28;20379;-75
2023/06/01 03:42:41;;;;;;;387.02;199.10;;;12.00;99.90;;;;;;5117691;28;20459;-76
2023/06/01 03:45:07;;;;;;;128.13;121.97;;;12.00;99.90;;;;;;5118111;28;20055;-76
2023/06/01 03:47:33;;;;;;;265.50;216.43;;;12.10;99.90;;;;;;5099920;28;20039;-76
2023/06/01 03:50:01;;;;;;;171.50;158.55;;;12.10;99.90;;;;;;5116844;28;20043;-75
2023/06/01 03:52:29;;;;;;;1999.90;999.90;;;12.10;99.90;;;;;;5117840;28;20039;-76
2023/06/01 03:54:56;;;;;;;1999.90;999.90;;;12.00;99.90;;;;;;5118691;27;20104;-75
2023/06/01 03:57:23;;;;;;;1999.90;999.90;;;12.10;99.90;;;;;;5116816;28;20044;-76
2023/06/01 03:59:48;;;;;;;1999.90;999.90;;;12.10;99.90;;;;;;5116833;28;20051;-75
2023/06/01 04:02:14;;;;;;;1999.90;999.90;;;12.00;99.90;;;;;;5099661;28;20200;-75
2023/06/01 04:04:45;;;;;;;1999.90;999.90;;;12.10;99.90;;;;;;5100495;28;20042;-75
2023/06/01 04:07:14;;;;;;;1999.90;999.90;;;12.10;99.90;;;;;;5117578;28;20176;-75
2023/06/01 04:09:40;;;;;;;1999.90;999.90;;;12.00;99.90;;;;;;5117589;28;20040;-75
2023/06/01 04:12:06;;;;;;;1999.90;999.90;;;12.00;99.90;;;;;;5116236;28;20104;-76
2023/06/01 04:14:32;;;;;;;1999.90;999.90;;;12.00;99.90;;;;;;5117324;28;20554;-75
2023/06/01 04:16:58;;;;;;;1999.90;999.90;;;12.00;99.90;;;;;;5117247;28;20036;-75
2023/06/01 04:19:23;;;;;;;1999.90;999.90;;;12.00;99.90;;;;;;5116337;28;20054;-76
2023/06/01 04:21:49;;;;;;;1999.90;999.90;;;12.00;99.90;;;;;;5115935;28;20494;-75
2023/06/01 04:24:15;;;;;;;1999.90;999.90;;;12.00;99.90;;;;;;5116896;28;20101;-76
2023/06/01 04:26:41;;;;;;;1999.90;999.90;;;11.90;99.90;;;;;;5116270;28;20039;-75
2023/06/01 04:29:08;;;;;;;1999.90;999.90;;;12.00;99.90;;;;;;5099236;28;20050;-75
2023/06/01 04:31:34;;;;;;;1999.90;999.90;;;11.90;99.90;;;;;;5115984;28;20055;-75
2023/06/01 04:34:01;;;;;;;1999.90;999.90;;;12.00;99.90;;;;;;5117003;28;20055;-76
2023/06/01 04:36:29;;;;;;;1999.90;999.90;;;12.00;99.90;;;;;;5098903;28;20104;-76
2023/06/01 04:38:57;;;;;;;1999.90;999.90;;;12.00;99.90;;;;;;5098895;28;20044;-75
2023/06/01 04:41:24;;;;;;;1999.90;999.90;;;12.00;99.90;;;;;;5116573;28;20495;-75
2023/06/01 04:43:54;;;;;;;1999.90;999.90;;;12.00;99.90;;;;;;5115584;28;20039;-74
2023/06/01 04:46:23;;;;;;;1999.90;999.90;;;12.00;99.90;;;;;;5116697;27;20126;-75
2023/06/01 04:48:51;;;;;;;1999.90;999.90;;;12.00;99.90;;;;;;5115555;28;20205;-75
2023/06/01 04:51:21;;;;;;;1999.90;999.90;;;12.00;99.90;;;;;;5115009;28;20052;-75
2023/06/01 04:53:49;;;;;;;1999.90;999.90;;;12.00;99.90;;;;;;5117168;28;20040;-75
2023/06/01 04:56:17;;;;;;;1999.90;999.90;;;12.00;99.90;;;;;;5116554;28;20040;-75
2023/06/01 04:58:43;;;;;;;1999.90;999.90;;;11.90;99.90;;;;;;5115315;28;20036;-75
2023/06/01 05:01:15;;;;;;;1999.90;999.90;;;11.90;99.90;;;;;;5116720;28;20129;-75
2023/06/01 05:03:43;;;;;;;1999.90;999.90;;;11.90;99.90;;;;;;5115524;28;20043;-75
2023/06/01 05:06:11;;;;;;;1999.90;999.90;;;11.90;99.90;;;;;;5115525;28;20128;-75
2023/06/01 05:08:40;;;;;;;1999.90;999.90;;;11.90;99.90;;;;;;5115127;28;20122;-75
2023/06/01 05:11:08;;;;;;;1999.90;999.90;;;12.00;99.90;;;;;;5098607;28;20108;-75
2023/06/01 05:13:38;;;;;;;1999.90;999.90;;;11.90;99.90;;;;;;5116167;28;20036;-75
2023/06/01 05:16:05;;;;;;;1999.90;999.90;;;11.90;99.90;;;;;;5115767;28;20090;-76
2023/06/01 05:18:32;;;;;;;1999.90;999.90;;;11.90;99.90;;;;;;5114919;28;20059;-76
2023/06/01 05:20:58;;;;;;;1999.90;999.90;;;11.90;99.90;;;;;;5115924;28;20134;-76
2023/06/01 05:23:25;;;;;;;1999.90;999.90;;;11.90;99.90;;;;;;5116721;28;20078;-75
2023/06/01 05:25:51;;;;;;;1999.90;999.90;;;11.90;99.90;;;;;;5115801;28;20059;-74
2023/06/01 05:28:17;;;;;;;1999.90;999.90;;;11.90;99.90;;;;;;5114661;28;20122;-74
2023/06/01 05:30:43;;;;;;;1999.90;999.90;;;11.90;99.90;;;;;;5114417;28;20141;-75
2023/06/01 05:33:09;;;;;;;1999.90;999.90;;;11.90;99.90;;;;;;5116635;28;20550;-74
2023/06/01 05:35:35;;;;;;;1999.90;999.90;;;11.90;99.90;;;;;;5115339;28;20489;-76
2023/06/01 05:38:01;;;;;;;1999.90;999.90;;;11.90;99.90;;;;;;5115696;28;20436;-75
2023/06/01 05:40:27;;;;;;;1999.90;999.90;;;11.90;99.90;;;;;;5114644;28;20118;-75
2023/06/01 05:42:52;;;;;;;1999.90;999.90;;;11.90;99.90;;;;;;5116155;27;20517;-75
2023/06/01 05:45:18;;;;;;;1999.90;999.90;;;11.90;99.90;;;;;;5115619;28;20115;-75
2023/06/01 05:47:44;;;;;;;1999.90;999.90;;;11.90;99.90;;;;;;5115648;28;20046;-75
2023/06/01 05:50:10;;;;;;;1999.90;999.90;;;11.90;99.90;;;;;;5113888;28;20590;-74
2023/06/01 05:52:36;;;;;;;1999.90;999.90;;;11.90;99.90;;;;;;5115351;28;20059;-75
2023/06/01 05:55:02;;;;;;;1999.90;999.90;;;11.90;99.90;;;;;;5097779;28;20395;-75
2023/06/01 05:57:28;;;;;;;1999.90;999.90;;;11.90;99.90;;;;;;5115307;28;20114;-75
2023/06/01 05:59:53;;;;;;;1999.90;999.90;;;11.90;99.90;;;;;;5114048;28;20044;-74
2023/06/01 06:02:19;;;;;;;1999.90;999.90;;;12.00;99.90;;;;;;5113715;28;20047;-74
2023/06/01 06:04:45;;;;;;;1999.90;999.90;;;12.00;99.90;;;;;;5113440;28;20123;-75
2023/06/01 06:07:11;;;;;;;1999.90;999.90;;;11.90;99.90;;;;;;5113781;28;20503;-75
2023/06/01 06:09:37;;;;;;;1999.90;999.90;;;12.00;99.90;;;;;;5115589;28;20122;-74
2023/06/01 06:12:03;;;;;;;1999.90;999.90;;;11.90;99.90;;;;;;5114060;28;20383;-75
2023/06/01 06:14:28;;;;;;;1999.90;999.90;;;12.00;99.90;;;;;;5114053;28;20054;-75
2023/06/01 06:16:54;;;;;;;1999.90;999.90;;;12.00;99.90;;;;;;5096978;28;20051;-75
2023/06/01 06:19:20;;;;;;;1999.90;999.90;;;12.00;99.90;;;;;;5115455;28;20131;-73
2023/06/01 06:21:46;;;;;;;1999.90;999.90;;;12.00;99.90;;;;;;5114765;28;20091;-74
2023/06/01 06:24:11;;;;;;;1999.90;999.90;;;12.00;99.90;;;;;;5113297;28;20075;-75
2023/06/01 06:26:37;;;;;;;1999.90;999.90;;;12.10;99.90;;;;;;5114708;28;20047;-74
2023/06/01 06:29:03;;;;;;;1999.90;999.90;;;12.10;99.90;;;;;;5115235;28;20385;-75
2023/06/01 06:31:29;;;;;;;1999.90;999.90;;;12.10;99.90;;;;;;5096169;28;20055;-75
2023/06/01 06:33:55;;;;;;;1999.90;999.90;;;12.20;99.90;;;;;;5113922;28;20051;-74
2023/06/01 06:36:21;;;;;;;1999.90;999.90;;;12.10;99.90;;;;;;5114556;28;20044;-75
2023/06/01 06:38:46;;;;;;;1999.90;999.90;;;12.10;99.90;;;;;;5114545;28;20051;-75
2023/06/01 06:41:12;;;;;;;1999.90;999.90;;;12.10;99.90;;;;;;5114511;28;20055;-75
2023/06/01 06:43:38;;;;;;;1999.90;999.90;;;12.10;99.90;;;;;;5114535;28;20043;-74
2023/06/01 06:46:04;;;;;;;1999.90;999.90;;;12.10;99.90;;;;;;5113369;28;20498;-74
2023/06/01 06:48:29;;;;;;;1999.90;999.90;;;12.20;99.90;;;;;;5114339;28;20066;-75
2023/06/01 06:50:56;;;;;;;1999.90;999.90;;;12.20;99.90;;;;;;5114886;28;20075;-75
2023/06/01 06:53:22;;;;;;;1999.90;999.90;;;12.30;99.90;;;;;;5113244;28;20043;-74
2023/06/01 06:55:47;;;;;;;1999.90;999.90;;;12.30;99.90;;;;;;5114280;27;20088;-76
2023/06/01 06:58:13;;;;;;;1999.90;999.90;;;12.30;99.90;;;;;;5114828;28;20115;-75
2023/06/01 07:00:43;;;;;;;1999.90;999.90;;;12.40;99.90;;;;;;5114247;28;20048;-75
2023/06/01 07:03:09;;;;;;;1999.90;999.90;;;12.40;99.90;;;;;;5114219;28;20051;-75
2023/06/01 07:05:35;;;;;;;1999.90;999.90;;;12.40;99.90;;;;;;5114176;28;20075;-75
2023/06/01 07:08:01;;;;;;;1999.90;999.90;;;12.50;99.90;;;;;;5114854;28;20456;-75
2023/06/01 07:10:27;;;;;;;1999.90;999.90;;;12.50;99.90;;;;;;5112921;28;20131;-75
2023/06/01 07:12:52;;;;;;;1999.90;999.90;;;12.50;99.90;;;;;;5112850;28;20157;-75
2023/06/01 07:15:18;;;;;;;1999.90;999.90;;;12.40;99.90;;;;;;5113811;28;20055;-75
2023/06/01 07:17:44;;;;;;;1999.90;999.90;;;12.50;99.90;;;;;;5112852;28;20106;-75
2023/06/01 07:20:13;;;;;;;1999.90;999.90;;;12.50;99.90;;;;;;5113958;28;20050;-75
2023/06/01 07:22:39;;;;;;;1999.90;999.90;;;12.50;99.90;;;;;;5113896;28;20055;-75
2023/06/01 07:25:07;;;;;;;1999.90;999.90;;;12.50;99.90;;;;;;5113570;28;20083;-75
2023/06/01 07:27:35;;;;;;;1999.90;999.90;;;12.40;99.90;;;;;;5113945;28;20105;-75
2023/06/01 07:30:05;;;;;;;1999.90;999.90;;;12.50;99.90;;;;;;5114359;27;20503;-76
2023/06/01 07:32:30;;;;;;;1999.90;999.90;;;12.50;99.90;;;;;;5134282;27;20120;-76
2023/06/01 07:34:59;;;;;;;1999.90;999.90;;;12.50;99.90;;;;;;5135224;28;20055;-75
2023/06/01 07:37:26;;;;;;;1999.90;999.90;;;12.50;99.90;;;;;;5134909;28;20035;-75
2023/06/01 07:39:55;;;;;;;1999.90;999.90;;;12.50;99.90;;;;;;5116849;28;20051;-75
2023/06/01 07:42:21;;;;;;;1999.90;999.90;;;12.40;99.90;;;;;;5134304;28;20497;-75
2023/06/01 07:44:47;;;;;;;1999.90;999.90;;;12.40;99.90;;;;;;5116575;28;20080;-75
2023/06/01 07:47:13;;;;;;;1999.90;999.90;;;12.40;99.90;;;;;;5115941;28;20047;-75
2023/06/01 07:49:39;;;;;;;1999.90;999.90;;;12.40;99.90;;;;;;5117751;28;20047;-75
2023/06/01 07:52:06;;;;;;;1999.90;999.90;;;12.40;99.90;;;;;;5115942;28;20053;-75
2023/06/01 07:54:34;;;;;;;1999.90;999.90;;;12.40;99.90;;;;;;5136102;28;20406;-74
2023/06/01 07:57:01;;;;;;;1999.90;999.90;;;12.40;99.90;;;;;;5117521;28;20053;-75
2023/06/01 07:59:27;;;;;;;1999.90;999.90;;;12.40;99.90;;;;;;5115973;28;20039;-74
2023/06/01 08:01:55;;;;;;;1999.90;999.90;;;12.40;99.90;;;;;;5134257;28;20043;-75
2023/06/01 08:04:20;;;;;;;1999.90;999.90;;;12.40;99.90;;;;;;5135086;28;20043;-75
2023/06/01 08:06:47;;;;;;;1999.90;999.90;;;12.50;99.90;;;;;;5134237;28;20048;-75
2023/06/01 08:09:13;;;;;;;1999.90;999.90;;;12.50;99.90;;;;;;5134267;28;20070;-76
2023/06/01 08:11:39;;;;;;;1999.90;999.90;;;12.40;99.90;;;;;;5116044;28;20051;-74
2023/06/01 08:14:09;;;;;;;1999.90;999.90;;;12.40;99.90;;;;;;5133932;28;20537;-75
2023/06/01 08:16:35;;;;;;;1999.90;999.90;;;12.40;99.90;;;;;;5133827;28;20509;-76
2023/06/01 08:19:01;;;;;;;1999.90;999.90;;;12.50;99.90;;;;;;5098982;28;20039;-76
2023/06/01 08:21:26;;;;;;;1999.90;999.90;;;12.50;99.90;;;;;;5134959;28;20463;-75
2023/06/01 08:23:54;;;;;;;1999.90;999.90;;;12.50;99.90;;;;;;5117076;28;20039;-74
2023/06/01 08:26:21;;;;;;;1999.90;999.90;;;12.60;99.90;;;;;;5134685;27;20043;-73
2023/06/01 08:28:51;;;;;;;1999.90;999.90;;;12.60;99.90;;;;;;5119307;27;20058;-73
2023/06/01 08:31:22;;;;;;;1999.90;999.90;;;12.60;99.90;;;;;;5119299;27;20116;-74
2023/06/01 08:33:48;;;;;;;1999.90;999.90;;;12.60;99.90;;;;;;5138887;27;20077;-74
2023/06/01 08:36:15;;;;;;;1999.90;999.90;;;12.60;99.90;;;;;;5137661;27;20449;-73
2023/06/01 08:38:41;;;;;;;1999.90;999.90;;;12.60;99.90;;;;;;5137546;27;20089;-74
2023/06/01 08:41:16;;;;;;;1999.90;999.90;;;12.60;99.90;;;;;;5102695;27;20467;-74
2023/06/01 08:43:46;;;;;;;1999.90;999.90;;;12.60;99.90;;;;;;5137816;27;20043;-74
2023/06/01 08:46:14;;;;;;;1999.90;999.90;;;12.60;99.90;;;;;;5119345;27;20035;-74
2023/06/01 08:48:42;;;;;;;1999.90;999.90;;;12.60;99.90;;;;;;5119385;27;20475;-81
2023/06/01 08:51:08;;;;;;;1999.90;999.90;;;10.70;99.90;;;;;;5104030;27;20133;-76
2023/06/01 08:53:35;;;;;;;1999.90;999.90;;;12.60;99.90;;;;;;5118907;27;20451;-75
2023/06/01 08:56:03;;;;;;;1999.90;999.90;;;12.60;99.90;;;;;;5119015;27;20053;-76
2023/06/01 08:58:30;;;;;;;1999.90;999.90;;;12.70;99.90;;;;;;5119100;27;20425;-75
2023/06/01 09:00:57;;;;;;;1999.90;999.90;;;12.70;99.90;;;;;;5137052;27;20050;-76
2023/06/01 09:03:24;;;;;;;1999.90;999.90;;;12.70;99.90;;;;;;5137010;27;20047;-74
2023/06/01 09:05:50;;;;;;;1999.90;999.90;;;12.70;99.90;;;;;;5118710;27;20054;-75
2023/06/01 09:08:16;;;;;;;1999.90;999.90;;;12.70;99.90;;;;;;5118185;27;20047;-75
2023/06/01 09:10:41;;;;;;;1999.90;999.90;;;12.70;99.90;;;;;;5137749;27;20144;-76
2023/06/01 09:13:07;;;;;;;1999.90;999.90;;;12.70;99.90;;;;;;5136926;27;20490;-77
2023/06/01 09:15:33;;;;;;;1999.90;999.90;;;12.70;99.90;;;;;;5136591;27;20151;-76
2023/06/01 09:18:11;;;;;;;1999.90;999.90;;;12.70;99.90;;;;;;5136860;27;20039;-76
2023/06/01 09:20:38;;;;;;;1999.90;999.90;;;12.80;99.90;;;;;;5118535;27;20042;-75
2023/06/01 09:23:04;;;;;;;1999.90;999.90;;;12.80;99.90;;;;;;5118548;27;20107;-75
2023/06/01 09:25:34;;;;;;;1999.90;999.90;;;12.90;99.90;;;;;;5136711;27;20482;-74
2023/06/01 09:28:01;;;;;;;1999.90;999.90;;;12.90;99.90;;;;;;5136534;27;20035;-77
2023/06/01 09:30:42;;;;;;;1999.90;999.90;;;13.00;99.90;;;;;;5136307;27;20047;-76
2023/06/01 09:33:16;;;;;;;1999.90;999.90;;;12.90;99.90;;;;;;5117840;27;20063;-76
2023/06/01 09:35:49;;;;;;;1999.90;999.90;;;12.90;99.90;;;;;;5137132;27;20051;-78
2023/06/01 09:38:25;;;;;;;1999.90;999.90;;;13.00;99.90;;;;;;5118364;27;20043;-76
2023/06/01 09:41:01;;;;;;;1999.90;999.90;;;13.00;99.90;;;;;;5136144;27;20050;-77
2023/06/01 09:43:27;;;;;;;1999.90;999.90;;;13.00;99.90;;;;;;5136284;27;20055;-76
2023/06/01 09:46:07;;;;;;;1999.90;999.90;;;13.00;99.90;;;;;;5136273;27;20043;-76
2023/06/01 09:48:32;;;;;;;1999.90;999.90;;;13.00;99.90;;;;;;5136264;27;20386;-76
2023/06/01 09:50:58;;;;;;;1999.90;999.90;;;13.00;99.90;;;;;;5136106;27;20122;-75
2023/06/01 09:53:25;;;;;;;1999.90;999.90;;;13.00;99.90;;;;;;5136000;27;20066;-75
2023/06/01 09:55:59;;;;;;;1999.90;999.90;;;13.00;99.90;;;;;;5136013;27;20050;-76
2023/06/01 09:58:24;;;;;;;1999.90;999.90;;;13.00;99.90;;;;;;5136044;27;20100;-76
2023/06/01 10:00:51;;;;;;;1999.90;999.90;;;13.00;99.90;;;;;;5135894;27;20043;-76
2023/06/01 10:03:19;;;;;;;1999.90;999.90;;;13.00;99.90;;;;;;5100754;27;20075;-75
2023/06/01 10:05:46;;;;;;;1999.90;999.90;;;13.10;99.90;;;;;;5135770;27;20054;-75
2023/06/01 10:08:13;;;;;;;1999.90;999.90;;;13.00;99.90;;;;;;5135821;27;20043;-76
2023/06/01 10:10:41;;;;;;;1999.90;999.90;;;13.10;99.90;;;;;;5117639;27;20096;-75
2023/06/01 10:13:07;;;;;;;1999.90;999.90;;;13.10;99.90;;;;;;5136443;27;20039;-74
2023/06/01 10:15:33;;;;;;;1999.90;999.90;;;13.10;99.90;;;;;;5136132;27;20130;-76
2023/06/01 10:18:00;;;;;;;1999.90;999.90;;;13.10;99.90;;;;;;5135572;27;20051;-78
2023/06/01 10:20:26;;;;;;;1999.90;999.90;;;13.20;99.90;;;;;;5117136;27;20126;-79
2023/06/01 10:22:52;;;;;;;1999.90;999.90;;;13.20;99.90;;;;;;5117602;27;20054;-77
2023/06/01 10:25:23;;;;;;;1999.90;999.90;;;13.20;99.90;;;;;;5083590;27;20047;-78
2023/06/01 10:28:07;;;;;;;1999.90;999.90;;;13.30;99.90;;;;;;5117498;27;20104;-77
2023/06/01 10:30:34;;;;;;;1999.90;999.90;;;13.30;99.90;;;;;;5135725;27;20043;-76
2023/06/01 10:33:00;;;;;;;1999.90;999.90;;;13.30;99.90;;;;;;5116706;27;20087;-76
2023/06/01 10:35:26;;;;;;;1999.90;999.90;;;13.20;99.90;;;;;;5135268;27;20081;-73
2023/06/01 10:38:07;;;;;;;1999.90;999.90;;;13.30;99.90;;;;;;5135259;27;20046;-75
2023/06/01 10:40:50;;;;;;;1999.90;999.90;;;13.40;99.90;;;;;;5134901;27;20486;-76
2023/06/01 10:43:38;;;;;;;1999.90;999.90;;;13.40;99.90;;;;;;5118083;27;20105;-77
2023/06/01 10:46:30;;;;;;;1999.90;999.90;;;13.40;99.90;;;;;;5116631;27;20107;-78
2023/06/01 10:48:57;;;;;;;1999.90;999.90;;;13.40;99.90;;;;;;5116731;28;20483;-77
2023/06/01 10:51:27;;;;;;;1999.90;999.90;;;13.50;99.90;;;;;;5120707;27;20095;-77
2023/06/01 10:53:53;;;;;;;1999.90;999.90;;;13.50;99.90;;;;;;5135571;27;20047;-77
2023/06/01 10:56:28;;;;;;;1999.90;999.90;;;13.50;99.90;;;;;;5116492;27;20059;-77
2023/06/01 10:59:03;;;;;;;1999.90;999.90;;;13.60;99.90;;;;;;5116629;28;20130;-79
2023/06/01 11:01:29;;;;;;;1999.90;999.90;;;13.70;99.90;;;;;;5116871;27;20085;-76
2023/06/01 11:03:55;;;;;;;1999.90;999.90;;;13.70;99.90;;;;;;5135184;27;20051;-77
2023/06/01 11:06:39;;;;;;;1999.90;999.90;;;13.80;99.90;;;;;;5099686;27;20372;-76
2023/06/01 11:09:10;;;;;;;1999.90;999.90;;;13.80;99.90;;;;;;5135459;27;20051;-76
2023/06/01 11:11:48;;;;;;;1999.90;999.90;;;13.80;99.90;;;;;;5100285;27;20498;-78
2023/06/01 11:14:16;;;;;;;1999.90;999.90;;;13.80;99.90;;;;;;5116638;27;20108;-76
2023/06/01 11:16:41;;;;;;;1999.90;999.90;;;13.90;99.90;;;;;;5099628;27;20046;-75
2023/06/01 11:19:09;;;;;;;1999.90;999.90;;;13.90;99.90;;;;;;5117268;27;20046;-87
2023/06/01 11:21:39;;;;;;;1999.90;999.90;;;14.00;99.90;;;;;;5116695;28;20043;-84
2023/06/01 11:24:16;;;;;;;1999.90;999.90;;;14.00;99.90;;;;;;5116795;28;20042;-87
2023/06/01 11:26:43;;;;;;;1999.90;999.90;;;13.90;99.90;;;;;;5099795;28;20489;-84
2023/06/01 11:29:20;;;;;;;1999.90;999.90;;;13.90;99.90;;;;;;5116262;28;20087;-86
2023/06/01 11:31:49;;;;;;;1999.90;999.90;;;13.90;99.90;;;;;;5116315;28;20502;-88
2023/06/01 11:34:18;;;;;;;1999.90;999.90;;;13.80;99.90;;;;;;5135087;28;20047;-86
2023/06/01 11:36:50;;;;;;;1999.90;999.90;;;13.80;99.90;;;;;;5134643;28;20048;-87
2023/06/01 11:39:17;;;;;;;1999.90;999.90;;;13.70;99.90;;;;;;5135235;28;20047;-86
2023/06/01 11:41:44;;;;;;;1999.90;999.90;;;13.70;99.90;;;;;;5117913;28;20293;-89
2023/06/01 11:44:10;;;;;;;1999.90;999.90;;;13.70;99.90;;;;;;5118634;28;20055;-87
2023/06/01 11:46:36;;;;;;;1999.90;999.90;;;13.60;99.90;;;;;;5083465;28;20051;-86
2023/06/01 11:49:06;;;;;;;1999.90;999.90;;;13.60;99.90;;;;;;5135186;28;20126;-88
2023/06/01 11:51:37;;;;;;;1999.90;999.90;;;13.60;99.90;;;;;;5134062;28;20483;-85
2023/06/01 11:54:03;;;;;;;1999.90;999.90;;;13.70;99.90;;;;;;5116088;28;20047;-89
2023/06/01 11:56:34;;;;;;;1999.90;999.90;;;13.60;99.90;;;;;;5116702;28;20039;-76
2023/06/01 11:59:11;;;;;;;1999.90;999.90;;;13.60;99.90;;;;;;5134697;28;20043;-77
2023/06/01 12:01:42;;;;;;;1999.90;999.90;;;13.60;99.90;;;;;;5117132;27;20051;-76
2023/06/01 12:04:15;;;;;;;1999.90;999.90;;;13.50;99.90;;;;;;5138367;27;20047;-76
2023/06/01 12:06:41;;;;;;;1999.90;999.90;;;13.50;99.90;;;;;;5138416;27;20483;-75
2023/06/01 12:09:08;;;;;;;1999.90;999.90;;;13.50;99.90;;;;;;5138245;27;20047;-75
2023/06/01 12:11:34;;;;;;;1999.90;999.90;;;13.50;99.90;;;;;;5120886;27;20051;-74
2023/06/01 12:14:01;;;;;;;1999.90;999.90;;;13.50;99.90;;;;;;5103862;27;20049;-77
2023/06/01 12:16:54;;;;;;;1999.90;999.90;;;13.50;99.90;;;;;;5119875;27;20051;-75
2023/06/01 12:19:21;;;;;;;1999.90;999.90;;;13.60;99.90;;;;;;5120226;27;20086;-77